Time;durP1;ratioP1;P1;durP2;ratioP2;P2;SDS_P1;SDS_P2;PMS_P1;PMS_P2;Temp;Humidity;BMP_temperature;BMP_pressure;BME280_temperature;BME280_humidity;BME280_pressure;Samples;Min_cycle;Max_cycle;Signal;HPM_P1;HPM_P2
2022/12/22 03:27:27;;;;;;;264.60;173.55;;;205.70;2252.80;;;;;;5095036;28;20111;-61
2022/12/22 03:29:52;;;;;;;288.77;200.45;;;205.40;2252.80;;;;;;5094573;28;20051;-64
2022/12/22 03:32:19;;;;;;;275.52;187.90;;;205.30;2252.80;;;;;;5094817;28;20027;-73
2022/12/22 03:34:44;;;;;;;294.90;196.10;;;205.20;2252.80;;;;;;5094612;28;20085;-59
2022/12/22 03:37:10;;;;;;;338.55;227.27;;;205.40;2252.80;;;;;;5093126;28;20497;-59
2022/12/22 03:39:36;;;;;;;378.27;264.50;;;205.50;2252.80;;;;;;5090440;28;20398;-59
2022/12/22 03:47:30;;;;;;;37.65;23.83;;;205.70;2252.80;;;;;;5091149;28;20080;-59
2022/12/22 03:49:56;;;;;;;47.20;33.00;;;230.40;2252.80;;;;;;5090758;28;20035;-59
2022/12/22 03:52:22;;;;;;;38.08;26.65;;;230.40;2252.80;;;;;;5090916;28;20020;-58
2022/12/22 03:54:48;;;;;;;24.35;15.88;;;230.40;2252.80;;;;;;5090610;28;20028;-58
2022/12/22 03:57:13;;;;;;;25.52;13.93;;;230.40;2252.80;;;;;;5090769;28;20481;-59
2022/12/22 03:59:39;;;;;;;186.63;127.53;;;230.40;2252.80;;;;;;5090800;28;20040;-58
2022/12/22 04:02:05;;;;;;;191.90;131.35;;;230.40;2252.80;;;;;;5090412;28;20023;-58
2022/12/22 04:04:31;;;;;;;172.93;120.35;;;230.40;2252.80;;;;;;5090346;28;20065;-58
2022/12/22 04:06:57;;;;;;;105.45;72.43;;;230.40;2252.80;;;;;;5090769;28;20421;-58
2022/12/22 04:09:23;;;;;;;159.50;108.70;;;230.40;2252.80;;;;;;5090453;28;20409;-58
2022/12/22 04:14:33;;;;;;;145.05;98.97;;;205.60;2252.80;;;;;;5090575;28;20039;-58
2022/12/22 04:17:00;;;;;;;132.68;89.63;;;205.70;2252.80;;;;;;5090231;28;20412;-58
2022/12/22 04:19:25;;;;;;;123.05;82.13;;;230.40;2252.80;;;;;;5090339;28;20053;-59
2022/12/22 04:21:51;;;;;;;99.82;67.40;;;205.70;2252.80;;;;;;5090254;28;20024;-59
2022/12/22 04:24:17;;;;;;;100.38;68.57;;;205.70;2252.80;;;;;;5090417;28;20038;-60
2022/12/22 04:26:42;;;;;;;75.43;53.63;;;205.70;2252.80;;;;;;5090317;28;20389;-59
2022/12/22 04:29:08;;;;;;;72.13;47.75;;;205.70;2252.80;;;;;;5090342;28;20420;-58
2022/12/22 04:31:34;;;;;;;73.97;46.22;;;205.70;2252.80;;;;;;5090377;28;20377;-58
2022/12/22 04:34:00;;;;;;;71.75;42.10;;;230.40;2252.80;;;;;;5088645;28;20032;-58
2022/12/22 04:36:25;;;;;;;54.20;35.47;;;205.70;2252.80;;;;;;5090128;28;20386;-59
2022/12/22 04:38:51;;;;;;;57.95;38.92;;;230.40;2252.80;;;;;;5089934;28;20028;-59
2022/12/22 04:41:17;;;;;;;54.92;38.00;;;230.40;2252.80;;;;;;5090101;28;20055;-58
2022/12/22 04:43:42;;;;;;;66.00;40.97;;;230.50;2252.80;;;;;;5090066;28;20024;-58
2022/12/22 04:46:08;;;;;;;75.68;49.20;;;230.40;2252.80;;;;;;5090042;28;20040;-59
2022/12/22 04:48:34;;;;;;;80.85;53.22;;;230.40;2252.80;;;;;;5090255;28;20020;-59
2022/12/22 04:51:01;;;;;;;68.28;45.53;;;230.40;2252.80;;;;;;5089918;28;20037;-62
2022/12/22 04:53:29;;;;;;;58.30;42.67;;;205.70;2252.80;;;;;;5093972;28;20051;-58
2022/12/22 04:56:03;;;;;;;112.75;73.13;;;205.50;2252.80;;;;;;5094163;28;20069;-59
2022/12/22 04:58:29;;;;;;;49.95;35.00;;;205.50;2252.80;;;;;;5093856;28;20050;-59
2022/12/22 05:00:55;;;;;;;46.45;32.72;;;205.40;2252.80;;;;;;5094281;28;20463;-58
2022/12/22 05:03:21;;;;;;;51.35;37.55;;;205.20;2252.80;;;;;;5094154;28;20103;-59
2022/12/22 05:05:47;;;;;;;44.85;34.20;;;205.20;2252.80;;;;;;5094024;28;20486;-59
2022/12/22 05:08:13;;;;;;;43.00;28.88;;;205.20;2252.80;;;;;;5094082;28;20024;-59
2022/12/22 05:10:38;;;;;;;36.80;27.17;;;205.30;2252.80;;;;;;5093755;28;20036;-59
2022/12/22 05:13:04;;;;;;;41.70;30.17;;;205.30;2252.80;;;;;;5092188;28;20040;-59
2022/12/22 05:15:32;;;;;;;40.13;29.40;;;205.10;2252.80;;;;;;5093464;28;20031;-58
2022/12/22 05:17:59;;;;;;;40.00;28.63;;;204.90;2252.80;;;;;;5093548;28;20082;-58
2022/12/22 05:20:26;;;;;;;86.47;56.53;;;204.90;2252.80;;;;;;5093798;28;20020;-59
2022/12/22 05:22:51;;;;;;;83.97;51.80;;;205.00;2252.80;;;;;;5093606;28;20024;-58
2022/12/22 05:25:20;;;;;;;41.88;28.60;;;205.00;2252.80;;;;;;5093591;28;20804;-59
2022/12/22 05:27:48;;;;;;;76.78;44.45;;;205.20;2252.80;;;;;;5093864;28;20062;-58
2022/12/22 05:30:15;;;;;;;213.40;115.63;;;205.40;2252.80;;;;;;5093759;28;20020;-58
2022/12/22 05:32:41;;;;;;;72.32;50.53;;;205.40;2252.80;;;;;;5093530;28;20059;-58
2022/12/22 05:35:07;;;;;;;218.30;120.35;;;205.50;2252.80;;;;;;5093808;28;20415;-58
2022/12/22 05:37:33;;;;;;;45.80;29.48;;;205.60;2252.80;;;;;;5093489;28;20024;-58
2022/12/22 05:39:59;;;;;;;66.50;37.50;;;205.70;2252.80;;;;;;5093201;28;20464;-58
2022/12/22 05:42:38;;;;;;;74.78;39.78;;;230.40;2252.80;;;;;;5093137;28;20052;-59
2022/12/22 05:45:08;;;;;;;42.67;29.48;;;230.50;2252.80;;;;;;5093523;28;20075;-56
2022/12/22 05:47:34;;;;;;;209.20;139.13;;;205.50;2252.80;;;;;;5093256;28;20522;-58
2022/12/22 05:50:00;;;;;;;194.85;133.63;;;205.40;2252.80;;;;;;5092952;28;20032;-59
2022/12/22 05:52:26;;;;;;;177.13;120.50;;;205.50;2252.80;;;;;;5093281;28;20024;-57
2022/12/22 05:54:52;;;;;;;152.90;102.78;;;205.40;2252.80;;;;;;5092930;28;20028;-58
2022/12/22 05:57:18;;;;;;;137.10;93.88;;;205.40;2252.80;;;;;;5093145;28;20036;-58
2022/12/22 05:59:44;;;;;;;97.03;63.80;;;205.40;2252.80;;;;;;5093155;28;20059;-59
2022/12/22 06:02:09;;;;;;;70.50;46.13;;;205.40;2252.80;;;;;;5092535;28;20527;-59
2022/12/22 06:04:35;;;;;;;80.72;54.97;;;205.60;2252.80;;;;;;5092478;28;20062;-59
2022/12/22 06:07:01;;;;;;;64.70;44.15;;;205.40;2252.80;;;;;;5092614;28;20028;-59
2022/12/22 06:09:26;;;;;;;42.60;30.38;;;205.50;2252.80;;;;;;5092750;28;20103;-59
2022/12/22 06:11:52;;;;;;;46.53;35.40;;;205.60;2252.80;;;;;;5092704;28;20028;-59
2022/12/22 06:14:17;;;;;;;40.42;30.88;;;205.60;2252.80;;;;;;5092813;28;20107;-59
2022/12/22 06:16:43;;;;;;;37.90;28.02;;;205.70;2252.80;;;;;;5092169;28;20039;-58
2022/12/22 06:19:09;;;;;;;26.25;18.85;;;205.70;2252.80;;;;;;5092458;28;20168;-58
2022/12/22 06:21:34;;;;;;;24.25;17.90;;;205.60;2252.80;;;;;;5092679;28;20139;-59
2022/12/22 06:24:00;;;;;;;24.70;19.40;;;205.40;2252.80;;;;;;5092329;28;20021;-60
2022/12/22 06:26:26;;;;;;;31.40;20.60;;;205.20;2252.80;;;;;;5092293;28;20386;-59
2022/12/22 06:28:51;;;;;;;26.63;18.42;;;205.00;2252.80;;;;;;5092205;28;20024;-58
2022/12/22 06:31:17;;;;;;;28.35;17.98;;;205.00;2252.80;;;;;;5092667;28;20024;-58
2022/12/22 06:33:44;;;;;;;19.42;13.77;;;205.00;2252.80;;;;;;5092196;28;20106;-58
2022/12/22 06:36:10;;;;;;;20.35;12.20;;;205.00;2252.80;;;;;;5092082;28;20057;-59
2022/12/22 06:38:35;;;;;;;17.30;12.60;;;205.10;2252.80;;;;;;5092131;28;20028;-58
2022/12/22 06:41:02;;;;;;;27.33;15.02;;;205.20;2252.80;;;;;;5091829;28;20055;-59
2022/12/22 06:43:28;;;;;;;333.13;154.68;;;205.10;2252.80;;;;;;5092061;28;20080;-58
2022/12/22 06:45:54;;;;;;;351.83;162.13;;;205.20;2252.80;;;;;;5092176;28;20111;-59
2022/12/22 06:48:20;;;;;;;252.85;143.10;;;205.40;2252.80;;;;;;5091951;28;20024;-59
2022/12/22 06:50:45;;;;;;;486.73;264.58;;;205.70;2252.80;;;;;;5092130;28;20028;-59
2022/12/22 06:53:11;;;;;;;262.38;126.32;;;230.50;2252.80;;;;;;5091897;28;20031;-58
2022/12/22 06:55:37;;;;;;;129.48;67.85;;;230.60;2252.80;;;;;;5091914;28;20474;-59
2022/12/22 06:58:03;;;;;;;114.20;61.30;;;230.60;2252.80;;;;;;5091648;28;20027;-58
2022/12/22 07:00:29;;;;;;;80.38;49.08;;;230.70;2252.80;;;;;;5091800;28;20032;-60
2022/12/22 07:02:55;;;;;;;598.00;365.55;;;230.70;2252.80;;;;;;5091951;28;20110;-59
2022/12/22 07:05:22;;;;;;;452.40;247.07;;;230.70;2252.80;;;;;;5091622;28;20119;-59
2022/12/22 07:07:48;;;;;;;532.60;331.48;;;230.70;2252.80;;;;;;5091571;28;20471;-60
2022/12/22 07:10:14;;;;;;;415.08;239.05;;;230.60;2252.80;;;;;;5091679;28;20397;-59
2022/12/22 07:12:41;;;;;;;297.27;176.18;;;230.70;2252.80;;;;;;5091666;28;20486;-59
2022/12/22 07:15:09;;;;;;;208.32;124.50;;;230.50;2252.80;;;;;;5089310;28;20390;-58
2022/12/22 07:17:34;;;;;;;270.27;162.60;;;230.80;2252.80;;;;;;5091473;28;20441;-59
2022/12/22 07:20:00;;;;;;;84.72;54.63;;;230.80;2252.80;;;;;;5091378;28;20116;-59
2022/12/22 07:22:26;;;;;;;74.68;43.92;;;230.90;2252.80;;;;;;5092571;28;20382;-59
2022/12/22 07:24:53;;;;;;;68.60;47.88;;;231.00;2252.80;;;;;;5094198;28;20036;-62
2022/12/22 07:27:19;;;;;;;102.53;64.50;;;231.00;2252.80;;;;;;5094059;28;20036;-60
2022/12/22 07:29:45;;;;;;;101.38;66.68;;;231.00;2252.80;;;;;;5095085;28;20077;-59
2022/12/22 07:32:11;;;;;;;209.50;133.45;;;231.10;2252.80;;;;;;5095116;28;20485;-61
2022/12/22 07:34:36;;;;;;;216.07;146.25;;;231.10;2252.80;;;;;;5095946;28;20028;-65
2022/12/22 07:37:02;;;;;;;139.27;97.75;;;231.20;2252.80;;;;;;5092667;28;20055;-60
2022/12/22 07:39:27;;;;;;;167.10;118.30;;;231.10;2252.80;;;;;;5090769;28;20031;-59
2022/12/22 07:44:37;;;;;;;114.32;81.53;;;230.90;2252.80;;;;;;5091365;28;20043;-64
2022/12/22 07:47:03;;;;;;;90.25;64.50;;;231.00;2252.80;;;;;;5091280;28;20020;-62
2022/12/22 07:52:13;;;;;;;140.32;108.60;;;231.10;2252.80;;;;;;5091095;28;20077;-66
2022/12/22 07:54:39;;;;;;;177.75;137.48;;;231.30;2252.80;;;;;;5090649;28;20513;-62
2022/12/22 07:57:04;;;;;;;135.23;100.20;;;231.20;2252.80;;;;;;5090948;28;20089;-63
2022/12/22 07:59:30;;;;;;;71.43;49.65;;;231.30;2252.80;;;;;;5090659;28;20355;-60
2022/12/22 08:01:56;;;;;;;68.80;48.55;;;231.30;2252.80;;;;;;5090753;28;20043;-65
2022/12/22 08:04:21;;;;;;;44.28;32.03;;;256.10;2252.80;;;;;;5090378;28;20035;-63
2022/12/22 08:06:47;;;;;;;37.83;30.00;;;256.30;2252.80;;;;;;5090486;28;20020;-58
2022/12/22 08:09:15;;;;;;;37.17;25.67;;;256.50;2252.80;;;;;;5090504;28;20024;-64
2022/12/22 08:11:41;;;;;;;32.13;21.15;;;256.40;2252.80;;;;;;5090066;28;20089;-60
2022/12/22 08:14:07;;;;;;;26.80;17.60;;;256.50;2252.80;;;;;;5090440;28;20016;-61
2022/12/22 08:16:33;;;;;;;27.90;20.83;;;256.40;2252.80;;;;;;5088995;28;20378;-64
2022/12/22 08:18:58;;;;;;;47.42;30.05;;;256.50;2252.80;;;;;;5090148;28;20036;-60
2022/12/22 08:21:24;;;;;;;43.13;30.13;;;256.60;2252.80;;;;;;5090381;28;20021;-58
2022/12/22 08:23:50;;;;;;;40.83;29.17;;;281.70;2278.40;;;;;;5090199;28;20397;-61
2022/12/22 08:26:30;;;;;;;37.45;25.75;;;282.00;2278.40;;;;;;5090230;28;20040;-62
2022/12/22 08:29:10;;;;;;;36.35;27.45;;;282.10;2278.40;;;;;;5090346;28;20028;-62
2022/12/22 08:31:36;;;;;;;59.92;39.40;;;282.20;2278.40;;;;;;5090308;28;20028;-62
2022/12/22 08:34:06;;;;;;;57.90;43.20;;;282.10;2278.40;;;;;;5090251;28;20081;-61
2022/12/22 08:36:36;;;;;;;104.32;78.80;;;282.00;2278.40;;;;;;5089855;28;20035;-60
2022/12/22 08:39:02;;;;;;;127.22;95.50;;;281.90;2278.40;;;;;;5089973;28;20035;-64
2022/12/22 08:44:13;;;;;;;142.70;111.15;;;282.50;2278.40;;;;;;5090101;28;20027;-61
2022/12/22 08:46:39;;;;;;;131.68;97.53;;;282.30;2278.40;;;;;;5089902;28;20024;-59
2022/12/22 08:49:05;;;;;;;108.13;83.18;;;282.30;2278.40;;;;;;5090029;28;20138;-60
2022/12/22 08:51:30;;;;;;;79.95;57.80;;;282.30;2278.40;;;;;;5089714;28;20032;-62
2022/12/22 08:53:56;;;;;;;62.75;45.60;;;282.30;2278.40;;;;;;5089895;28;20051;-63
2022/12/22 08:56:22;;;;;;;101.55;73.32;;;282.40;2278.40;;;;;;5089777;28;20020;-64
2022/12/22 08:58:47;;;;;;;109.55;80.07;;;282.30;2278.40;;;;;;5090071;28;20026;-62
2022/12/22 09:01:21;;;;;;;110.72;81.80;;;282.20;2278.40;;;;;;5089680;28;20081;-61
2022/12/22 09:03:51;;;;;;;83.85;60.78;;;282.30;2278.40;;;;;;5089314;28;20024;-65
2022/12/22 09:06:19;;;;;;;68.40;46.38;;;282.40;2278.40;;;;;;5089272;28;20094;-62
2022/12/22 09:08:44;;;;;;;139.82;105.35;;;282.50;2278.40;;;;;;5089282;28;20454;-59
2022/12/22 09:11:10;;;;;;;135.50;102.80;;;282.30;2278.40;;;;;;5089239;28;20114;-60
2022/12/22 09:13:37;;;;;;;124.22;94.07;;;282.50;2278.40;;;;;;5089190;28;20047;-58
2022/12/22 09:16:07;;;;;;;77.47;59.80;;;307.20;2304.00;;;;;;5089179;28;20027;-61
2022/12/22 09:18:33;;;;;;;80.20;57.10;;;307.40;2304.00;;;;;;5089154;28;20016;-62
2022/12/22 09:20:59;;;;;;;53.42;40.20;;;307.50;2304.00;;;;;;5089187;28;20020;-59
2022/12/22 09:23:25;;;;;;;71.97;56.70;;;307.70;2304.00;;;;;;5089269;28;20021;-63
2022/12/22 09:25:51;;;;;;;139.25;110.78;;;307.90;2304.00;;;;;;5088922;28;20060;-63
2022/12/22 09:28:17;;;;;;;134.27;107.93;;;307.90;2304.00;;;;;;5089176;28;20403;-59
2022/12/22 09:30:48;;;;;;;91.20;69.15;;;308.00;2304.00;;;;;;5088955;28;20027;-65
2022/12/22 09:33:13;;;;;;;249.20;203.23;;;308.00;2304.00;;;;;;5089008;28;20021;-58
2022/12/22 09:35:42;;;;;;;307.10;239.48;;;307.90;2304.00;;;;;;5089178;28;20028;-58
2022/12/22 09:38:08;;;;;;;349.42;261.63;;;307.80;2304.00;;;;;;5090392;28;20020;-59
2022/12/22 09:40:34;;;;;;;356.27;268.55;;;307.60;2304.00;;;;;;5092712;28;20040;-65
2022/12/22 09:43:00;;;;;;;268.65;209.75;;;307.70;2304.00;;;;;;5092498;28;20096;-59
2022/12/22 09:45:26;;;;;;;320.65;242.70;;;307.70;2304.00;;;;;;5093174;28;20071;-61
2022/12/22 09:47:53;;;;;;;294.38;229.70;;;307.90;2304.00;;;;;;5092962;28;20061;-59
2022/12/22 09:50:22;;;;;;;218.23;171.98;;;308.10;2304.00;;;;;;5093008;28;20047;-63
2022/12/22 09:53:03;;;;;;;164.82;124.57;;;332.90;2329.60;;;;;;5093163;28;20054;-65
2022/12/22 09:55:41;;;;;;;188.95;147.32;;;333.10;2329.60;;;;;;5093017;28;20036;-59
2022/12/22 09:58:28;;;;;;;191.82;149.65;;;332.90;2329.60;;;;;;5093112;28;20117;-65
2022/12/22 10:01:24;;;;;;;161.25;131.10;;;333.20;2329.60;;;;;;5093018;28;20021;-65
2022/12/22 10:03:54;;;;;;;251.15;183.50;;;333.40;2329.60;;;;;;5092628;28;20048;-63
2022/12/22 10:06:25;;;;;;;217.50;172.52;;;333.40;2329.60;;;;;;5092485;28;20032;-59
2022/12/22 10:08:53;;;;;;;237.70;181.15;;;333.20;2329.60;;;;;;5092470;28;20085;-59
2022/12/22 10:11:19;;;;;;;260.67;190.25;;;332.90;2329.60;;;;;;5092748;28;20958;-66
2022/12/22 10:13:45;;;;;;;215.60;169.38;;;332.80;2329.60;;;;;;5092685;28;20024;-64
2022/12/22 10:16:22;;;;;;;164.32;129.40;;;332.80;2329.60;;;;;;5092740;28;20016;-65
2022/12/22 10:19:04;;;;;;;132.20;104.75;;;308.10;2304.00;;;;;;5092588;28;20039;-64
2022/12/22 10:21:30;;;;;;;97.37;73.27;;;332.80;2329.60;;;;;;5092175;28;20028;-64
2022/12/22 10:23:56;;;;;;;85.30;60.80;;;332.80;2329.60;;;;;;5092706;28;20536;-63
2022/12/22 10:26:28;;;;;;;78.88;56.85;;;308.10;2304.00;;;;;;5092283;28;20044;-64
2022/12/22 10:29:09;;;;;;;161.77;114.17;;;308.10;2304.00;;;;;;5090680;28;20112;-63
2022/12/22 10:31:53;;;;;;;217.85;163.48;;;332.80;2329.60;;;;;;5088683;28;20016;-63
2022/12/22 10:34:20;;;;;;;224.32;163.65;;;307.90;2304.00;;;;;;5088778;28;20031;-59
2022/12/22 10:36:47;;;;;;;290.60;212.82;;;332.90;2329.60;;;;;;5091015;28;20036;-63
2022/12/22 10:39:30;;;;;;;272.63;202.93;;;333.00;2329.60;;;;;;5087895;28;20034;-62
2022/12/22 10:42:00;;;;;;;273.10;202.57;;;332.90;2329.60;;;;;;5088311;28;20109;-59
2022/12/22 10:44:29;;;;;;;243.27;184.88;;;332.80;2329.60;;;;;;5090539;28;20028;-64
2022/12/22 10:47:18;;;;;;;233.60;178.27;;;308.10;2304.00;;;;;;5088088;28;20032;-65
2022/12/22 10:49:47;;;;;;;232.00;176.50;;;308.00;2304.00;;;;;;5089123;28;20044;-60
2022/12/22 10:52:12;;;;;;;194.40;144.73;;;307.80;2304.00;;;;;;5089035;28;20024;-63
2022/12/22 10:54:42;;;;;;;221.57;164.40;;;307.60;2304.00;;;;;;5089327;28;20089;-58
2022/12/22 10:57:15;;;;;;;205.00;155.07;;;307.50;2304.00;;;;;;5089119;28;20233;-66
2022/12/22 11:00:01;;;;;;;217.65;158.05;;;307.50;2304.00;;;;;;5087448;28;20024;-66
2022/12/22 11:02:28;;;;;;;185.75;140.13;;;307.60;2304.00;;;;;;5089539;28;20505;-64
2022/12/22 11:05:08;;;;;;;157.93;119.65;;;307.70;2304.00;;;;;;5089811;28;20058;-63
2022/12/22 11:07:53;;;;;;;173.07;133.50;;;307.60;2304.00;;;;;;5088958;28;20505;-65
2022/12/22 11:10:42;;;;;;;193.38;142.73;;;307.60;2304.00;;;;;;5088560;28;20581;-64
2022/12/22 11:13:22;;;;;;;162.55;120.85;;;307.50;2304.00;;;;;;5088270;28;20466;-61
2022/12/22 11:15:50;;;;;;;179.07;131.70;;;307.30;2304.00;;;;;;5087979;28;20049;-59
2022/12/22 11:18:28;;;;;;;172.30;129.52;;;307.50;2304.00;;;;;;5087518;28;20420;-64
2022/12/22 11:20:54;;;;;;;139.82;105.72;;;307.50;2304.00;;;;;;5088820;28;20020;-60
2022/12/22 11:23:45;;;;;;;130.73;95.75;;;307.50;2304.00;;;;;;5088632;28;20024;-58
2022/12/22 11:26:18;;;;;;;132.48;95.55;;;307.70;2304.00;;;;;;5087780;28;20028;-58
2022/12/22 11:29:11;;;;;;;118.43;83.90;;;307.80;2304.00;;;;;;5088553;28;20059;-59
2022/12/22 11:32:31;;;;;;;112.03;83.80;;;307.70;2304.00;;;;;;5087613;28;20028;-59
2022/12/22 11:35:13;;;;;;;105.25;79.25;;;307.70;2304.00;;;;;;5006296;28;20061;-59
2022/12/22 11:37:50;;;;;;;101.45;75.43;;;307.90;2304.00;;;;;;5005327;28;20095;-58
2022/12/22 11:40:19;;;;;;;88.20;64.20;;;308.00;2304.00;;;;;;5004802;28;20029;-59
2022/12/22 11:43:21;;;;;;;102.00;73.32;;;307.90;2304.00;;;;;;5006288;28;20030;-64
2022/12/22 11:45:59;;;;;;;113.63;83.88;;;307.90;2304.00;;;;;;5006269;28;20037;-63
2022/12/22 11:48:42;;;;;;;86.03;65.40;;;307.80;2304.00;;;;;;5004862;28;20026;-60
2022/12/22 11:51:46;;;;;;;104.15;75.10;;;307.90;2304.00;;;;;;5006019;28;20056;-59
2022/12/22 11:55:00;;;;;;;111.20;83.07;;;307.80;2304.00;;;;;;5004858;28;20121;-59
2022/12/22 11:57:44;;;;;;;126.05;89.82;;;307.90;2304.00;;;;;;5006471;28;20051;-68
2022/12/22 12:00:12;;;;;;;106.22;77.57;;;332.80;2329.60;;;;;;5006227;28;20041;-63
2022/12/22 12:02:37;;;;;;;93.15;75.68;;;333.20;2329.60;;;;;;5005377;28;20030;-67
2022/12/22 12:05:16;;;;;;;103.00;79.75;;;333.20;2329.60;;;;;;5006909;28;20037;-65
2022/12/22 12:08:23;;;;;;;116.25;90.30;;;333.40;2329.60;;;;;;5003989;28;20388;-61
2022/12/22 12:11:04;;;;;;;136.35;99.93;;;333.40;2329.60;;;;;;5087053;28;20089;-63
2022/12/22 12:13:48;;;;;;;132.70;106.85;;;333.50;2329.60;;;;;;5087215;28;20020;-62
2022/12/22 12:16:33;;;;;;;102.72;78.00;;;333.70;2329.60;;;;;;5087449;28;20027;-57
2022/12/22 12:19:30;;;;;;;103.05;78.90;;;358.40;2329.60;;;;;;5086666;28;20470;-63
2022/12/22 12:22:11;;;;;;;114.22;90.57;;;358.40;2329.60;;;;;;5088138;28;20020;-66
2022/12/22 12:24:45;;;;;;;113.18;80.03;;;358.40;2329.60;;;;;;5087783;28;20122;-61
2022/12/22 12:27:29;;;;;;;107.68;77.68;;;358.50;2329.60;;;;;;5089155;28;20466;-66
2022/12/22 12:29:57;;;;;;;;;;;333.50;2329.60;;;;;;5089130;28;20035;-66
2022/12/22 12:32:41;;;;;;;101.30;72.22;;;333.50;2329.60;;;;;;5087833;28;19987;-65
2022/12/22 12:35:40;;;;;;;86.80;66.28;;;333.60;2329.60;;;;;;5089089;28;20021;-59
2022/12/22 12:38:29;;;;;;;92.28;70.50;;;358.40;2329.60;;;;;;5086778;28;20519;-66
2022/12/22 12:41:25;;;;;;;100.38;71.90;;;358.60;2329.60;;;;;;5088712;28;20044;-58
2022/12/22 12:43:53;;;;;;;81.32;62.05;;;358.40;2329.60;;;;;;5087369;28;20482;-61
2022/12/22 12:46:51;;;;;;;77.22;54.95;;;358.70;2329.60;;;;;;5089136;28;20040;-63
2022/12/22 12:49:52;;;;;;;76.18;56.85;;;333.70;2329.60;;;;;;5008846;28;20392;-60
2022/12/22 12:52:37;;;;;;;83.65;61.03;;;358.50;2329.60;;;;;;4968826;28;20178;-59
2022/12/22 12:55:44;;;;;;;86.25;58.13;;;358.60;2329.60;;;;;;4968903;28;20041;-62
2022/12/22 12:58:31;;;;;;;92.97;66.95;;;333.70;2329.60;;;;;;4921394;29;20063;-65
2022/12/22 13:00:57;;;;;;;84.20;57.03;;;358.40;2329.60;;;;;;4919444;29;20542;-63
2022/12/22 13:03:28;;;;;;;83.32;60.70;;;333.70;2329.60;;;;;;4920962;29;20060;-61
2022/12/22 13:05:59;;;;;;;106.57;77.93;;;333.70;2329.60;;;;;;4921066;29;20082;-60
2022/12/22 13:08:52;;;;;;;100.97;70.82;;;358.40;2329.60;;;;;;4918445;29;20024;-63
2022/12/22 13:11:19;;;;;;;66.15;50.97;;;333.70;2329.60;;;;;;4862771;29;20064;-59
2022/12/22 13:13:46;;;;;;;78.15;54.50;;;333.70;2329.60;;;;;;4866640;29;20106;-59
2022/12/22 13:16:14;;;;;;;80.85;55.17;;;333.40;2329.60;;;;;;4875554;29;20049;-66
2022/12/22 13:18:45;;;;;;;87.45;61.00;;;333.40;2329.60;;;;;;4865461;29;20061;-65
2022/12/22 13:21:21;;;;;;;77.93;54.97;;;333.20;2329.60;;;;;;4859672;29;20280;-64
2022/12/22 13:24:25;;;;;;;85.40;61.83;;;333.20;2329.60;;;;;;4869775;29;20120;-59
2022/12/22 13:26:55;;;;;;;133.90;87.28;;;333.40;2329.60;;;;;;4824376;29;20066;-57
2022/12/22 13:29:21;;;;;;;138.52;94.07;;;333.30;2329.60;;;;;;4875358;29;20081;-67
2022/12/22 13:31:56;;;;;;;147.75;93.22;;;333.20;2329.60;;;;;;4875764;29;20040;-59
2022/12/22 13:34:34;;;;;;;100.43;69.45;;;333.10;2329.60;;;;;;4886516;29;20053;-61
2022/12/22 13:37:13;;;;;;;91.70;68.55;;;333.10;2329.60;;;;;;4950987;29;20028;-67
2022/12/22 13:39:39;;;;;;;104.70;74.82;;;333.20;2329.60;;;;;;4950880;29;20031;-59
2022/12/22 13:42:06;;;;;;;116.65;88.18;;;333.00;2329.60;;;;;;4950852;29;20098;-58
2022/12/22 13:44:32;;;;;;;144.38;108.15;;;333.10;2329.60;;;;;;4950730;29;20482;-62
2022/12/22 13:47:05;;;;;;;134.73;97.40;;;333.30;2329.60;;;;;;4950675;29;20031;-59
2022/12/22 13:49:33;;;;;;;129.23;92.82;;;333.40;2329.60;;;;;;5006140;28;20496;-62
2022/12/22 13:52:00;;;;;;;126.55;96.18;;;333.20;2329.60;;;;;;4992787;28;20048;-59
2022/12/22 13:54:34;;;;;;;126.82;93.97;;;333.10;2329.60;;;;;;5009183;28;20038;-67
2022/12/22 13:57:03;;;;;;;136.43;101.97;;;333.00;2329.60;;;;;;5008836;28;20034;-67
2022/12/22 13:59:43;;;;;;;142.73;98.88;;;333.00;2329.60;;;;;;5008829;28;20088;-60
2022/12/22 14:02:08;;;;;;;122.63;85.13;;;332.90;2329.60;;;;;;5070518;28;20032;-59
2022/12/22 14:04:37;;;;;;;160.10;116.82;;;332.90;2329.60;;;;;;5071142;28;20518;-65
2022/12/22 14:07:29;;;;;;;161.13;120.47;;;333.00;2329.60;;;;;;5070841;28;20029;-59
2022/12/22 14:09:56;;;;;;;136.77;100.65;;;333.00;2329.60;;;;;;5065848;28;20119;-64
2022/12/22 14:12:25;;;;;;;135.43;98.30;;;333.00;2329.60;;;;;;5071216;28;20052;-69
2022/12/22 14:14:53;;;;;;;136.70;99.47;;;332.90;2329.60;;;;;;5070380;28;20103;-64
2022/12/22 14:17:31;;;;;;;161.32;118.13;;;332.80;2329.60;;;;;;5070721;28;20042;-61
2022/12/22 14:19:59;;;;;;;183.65;129.43;;;332.80;2329.60;;;;;;5070963;28;20379;-64
2022/12/22 14:22:32;;;;;;;165.40;115.65;;;332.80;2329.60;;;;;;5070781;28;20031;-64
2022/12/22 14:25:18;;;;;;;204.75;141.07;;;332.90;2329.60;;;;;;5070192;28;20474;-68
2022/12/22 14:27:50;;;;;;;187.27;142.80;;;332.80;2329.60;;;;;;5070223;28;20033;-67
2022/12/22 14:30:31;;;;;;;117.68;86.40;;;332.80;2329.60;;;;;;5070096;28;20078;-68
2022/12/22 14:33:15;;;;;;;142.20;94.13;;;332.80;2329.60;;;;;;5070724;28;20031;-66
2022/12/22 14:35:41;;;;;;;150.75;102.70;;;308.00;2304.00;;;;;;5070258;28;20106;-60
2022/12/22 14:38:19;;;;;;;147.50;99.00;;;307.80;2304.00;;;;;;5070513;28;20028;-62
2022/12/22 14:40:45;;;;;;;162.05;115.25;;;307.80;2304.00;;;;;;5069694;28;20126;-61
2022/12/22 14:43:16;;;;;;;161.25;109.55;;;307.80;2304.00;;;;;;5070043;28;20482;-62
2022/12/22 14:45:47;;;;;;;119.18;84.55;;;307.80;2304.00;;;;;;5070038;28;20575;-59
2022/12/22 14:48:18;;;;;;;120.35;84.40;;;307.80;2304.00;;;;;;5070065;28;20032;-60
2022/12/22 14:50:51;;;;;;;123.07;82.47;;;307.80;2304.00;;;;;;5070309;28;20031;-60
2022/12/22 14:53:51;;;;;;;131.43;87.75;;;308.00;2304.00;;;;;;5069743;28;20059;-61
2022/12/22 14:56:18;;;;;;;153.18;105.45;;;308.00;2304.00;;;;;;5007847;28;20037;-62
2022/12/22 14:58:45;;;;;;;184.23;120.70;;;308.00;2304.00;;;;;;5007711;28;20041;-65
2022/12/22 15:01:16;;;;;;;165.55;108.28;;;307.90;2304.00;;;;;;5007629;28;20029;-64
2022/12/22 15:03:43;;;;;;;124.28;82.30;;;308.00;2304.00;;;;;;5007586;28;20040;-65
2022/12/22 15:06:27;;;;;;;253.25;161.77;;;308.10;2304.00;;;;;;5006954;28;20447;-62
2022/12/22 15:09:13;;;;;;;198.45;134.38;;;307.90;2304.00;;;;;;5007308;28;20026;-64
2022/12/22 15:11:45;;;;;;;139.18;95.95;;;307.80;2304.00;;;;;;5000501;28;20037;-59
2022/12/22 15:14:15;;;;;;;118.60;87.13;;;307.80;2304.00;;;;;;5007413;28;20022;-68
2022/12/22 15:16:41;;;;;;;120.65;87.85;;;307.70;2304.00;;;;;;5007354;28;20266;-66
2022/12/22 15:19:09;;;;;;;140.10;95.60;;;307.60;2304.00;;;;;;5007085;28;20073;-67
2022/12/22 15:21:35;;;;;;;136.70;99.45;;;307.80;2304.00;;;;;;5007510;28;20267;-64
2022/12/22 15:24:02;;;;;;;140.38;98.97;;;308.00;2304.00;;;;;;5007064;28;20466;-58
2022/12/22 15:26:28;;;;;;;159.02;119.47;;;308.00;2304.00;;;;;;5007151;28;20050;-64
2022/12/22 15:28:53;;;;;;;142.73;97.53;;;332.90;2329.60;;;;;;5007188;28;20034;-63
2022/12/22 15:31:19;;;;;;;133.23;94.53;;;308.10;2304.00;;;;;;5024967;28;20040;-64
2022/12/22 15:33:45;;;;;;;171.63;122.03;;;308.10;2304.00;;;;;;5069107;28;20028;-65
2022/12/22 15:36:12;;;;;;;210.32;146.63;;;308.00;2304.00;;;;;;5068146;28;20051;-62
2022/12/22 15:38:39;;;;;;;145.75;104.22;;;308.10;2304.00;;;;;;5068948;28;20024;-58
2022/12/22 15:41:05;;;;;;;146.52;104.88;;;308.10;2304.00;;;;;;5069121;28;20049;-58
2022/12/22 15:43:31;;;;;;;292.20;181.13;;;308.10;2304.00;;;;;;5068868;28;20029;-58
2022/12/22 15:45:57;;;;;;;172.20;115.93;;;308.10;2304.00;;;;;;5068549;28;20033;-62
2022/12/22 15:48:29;;;;;;;180.18;120.30;;;332.80;2329.60;;;;;;5068990;28;20029;-57
2022/12/22 15:50:56;;;;;;;164.98;115.45;;;332.80;2329.60;;;;;;5069000;28;20024;-58
2022/12/22 15:53:22;;;;;;;168.40;114.70;;;308.10;2304.00;;;;;;5068748;28;20107;-60